createdAt,value
2019-05-12T00:00:28.578Z,1.37
2019-05-12T00:05:13.398Z,1.13
2019-05-12T00:09:59.167Z,2.10
2019-05-12T00:14:45.221Z,1.30
2019-05-12T00:19:31.011Z,3.23
2019-05-12T00:24:18.647Z,1.77
2019-05-12T00:29:04.200Z,2.10
2019-05-12T00:33:50.471Z,1.50
2019-05-12T00:38:38.116Z,1.27
2019-05-12T00:43:23.697Z,0.90
2019-05-12T00:48:09.873Z,1.07
2019-05-12T00:52:57.939Z,0.97
2019-05-12T00:57:43.184Z,0.90
2019-05-12T01:02:28.923Z,1.10
2019-05-12T01:07:15.265Z,1.53
2019-05-12T01:12:01.101Z,1.47
2019-05-12T01:16:48.634Z,1.73
2019-05-12T01:21:35.080Z,3.87
2019-05-12T01:26:20.791Z,1.63
2019-05-12T01:31:08.584Z,1.77
2019-05-12T01:35:54.465Z,2.63
2019-05-12T01:40:40.253Z,1.60
2019-05-12T01:45:28.448Z,2.40
2019-05-12T01:50:13.668Z,2.60
2019-05-12T01:54:59.368Z,1.60
2019-05-12T01:59:45.160Z,2.63
2019-05-12T02:04:32.499Z,2.07
2019-05-12T02:09:20.273Z,1.70
2019-05-12T02:14:09.010Z,2.53
2019-05-12T02:18:54.246Z,3.30
2019-05-12T02:23:39.988Z,2.57
2019-05-12T02:28:25.705Z,3.17
2019-05-12T02:33:11.401Z,3.43
2019-05-12T02:37:57.147Z,3.27
2019-05-12T02:42:46.032Z,2.70
2019-05-12T02:47:30.300Z,3.10
2019-05-12T02:52:16.612Z,3.17
2019-05-12T02:57:04.501Z,3.53
2019-05-12T03:01:54.841Z,3.03
2019-05-12T03:06:40.954Z,2.73
2019-05-12T03:11:28.967Z,3.47
2019-05-12T03:16:15.200Z,3.80
2019-05-12T03:21:01.282Z,4.07
2019-05-12T03:25:46.975Z,4.77
2019-05-12T03:30:38.538Z,6.23
2019-05-12T03:35:20.038Z,6.23
2019-05-12T03:40:06.340Z,7.27
2019-05-12T03:44:54.611Z,6.10
2019-05-12T03:49:39.388Z,8.43
2019-05-12T03:54:25.155Z,5.77
2019-05-12T03:59:10.838Z,5.50
2019-05-12T04:03:56.578Z,3.90
2019-05-12T04:08:45.244Z,5.50
2019-05-12T04:13:29.669Z,6.07
2019-05-12T04:18:16.252Z,8.80
2019-05-12T04:23:05.915Z,8.27
2019-05-12T04:27:49.973Z,5.83
2019-05-12T04:32:35.988Z,5.40
2019-05-12T04:37:24.784Z,5.37
2019-05-12T04:42:09.254Z,6.00
2019-05-12T04:46:55.560Z,6.27
2019-05-12T04:51:44.994Z,4.23
2019-05-12T04:56:29.277Z,3.50
2019-05-12T05:01:15.758Z,7.53
2019-05-12T05:06:04.220Z,4.63
2019-05-12T05:10:48.978Z,4.67
2019-05-12T05:15:35.527Z,5.73
2019-05-12T05:20:21.254Z,7.63
2019-05-12T05:25:07.099Z,6.37
2019-05-12T05:29:54.371Z,10.63
2019-05-12T05:34:45.095Z,5.07
2019-05-12T05:39:27.904Z,6.17
2019-05-12T05:44:13.974Z,6.23
2019-05-12T05:48:59.860Z,4.90
2019-05-12T05:53:49.764Z,3.03
2019-05-12T05:58:33.989Z,1.80
2019-05-12T06:03:23.385Z,2.00
2019-05-12T06:08:09.456Z,3.23
2019-05-12T06:12:54.845Z,6.43
2019-05-12T06:17:40.680Z,3.97
2019-05-12T06:22:26.335Z,5.13
2019-05-12T06:27:16.095Z,4.00
2019-05-12T06:32:00.040Z,4.80
2019-05-12T06:36:46.871Z,5.23
2019-05-12T06:41:33.602Z,4.63
2019-05-12T06:46:22.691Z,5.30
2019-05-12T06:51:09.134Z,5.53
2019-05-12T06:55:54.949Z,3.97
2019-05-12T07:00:40.802Z,5.27
2019-05-12T07:05:27.974Z,4.27
2019-05-12T07:10:35.144Z,4.70
2019-05-12T07:15:03.823Z,6.90
2019-05-12T07:19:54.780Z,6.37
2019-05-12T07:24:40.960Z,6.30
2019-05-12T07:29:24.905Z,5.93
2019-05-12T07:34:13.504Z,5.17
2019-05-12T07:39:10.199Z,5.53
2019-05-12T07:44:00.834Z,5.33
2019-05-12T07:48:50.837Z,4.70
2019-05-12T07:53:34.522Z,2.87
2019-05-12T07:58:23.743Z,3.40
2019-05-12T08:03:16.163Z,5.60
2019-05-12T08:08:00.653Z,8.30
2019-05-12T08:12:44.659Z,4.80
2019-05-12T08:17:33.559Z,3.87
2019-05-12T08:22:18.794Z,3.70
2019-05-12T08:27:06.699Z,2.70
2019-05-12T08:31:54.830Z,4.83
2019-05-12T08:36:44.923Z,5.00
2019-05-12T08:41:28.066Z,2.33
2019-05-12T08:46:15.700Z,4.60
2019-05-12T08:51:05.385Z,3.40
2019-05-12T08:55:48.708Z,5.43
2019-05-12T09:00:46.427Z,4.47
2019-05-12T09:05:34.524Z,4.63
2019-05-12T09:10:16.952Z,6.37
2019-05-12T09:15:04.768Z,4.80
2019-05-12T09:19:55.090Z,4.60
2019-05-12T09:24:37.799Z,3.73
2019-05-12T09:29:25.270Z,4.13
2019-05-12T09:34:12.017Z,6.57
2019-05-12T09:39:01.569Z,6.07
2019-05-12T09:43:50.398Z,3.83
2019-05-12T09:48:33.967Z,5.33
2019-05-12T09:53:19.922Z,4.00
2019-05-12T09:58:05.929Z,4.73
2019-05-12T10:02:59.025Z,5.97
2019-05-12T10:07:39.423Z,4.03
2019-05-12T10:12:29.356Z,5.37
2019-05-12T10:17:14.221Z,5.13
2019-05-12T10:22:00.114Z,4.60
2019-05-12T10:26:49.585Z,5.07
2019-05-12T10:31:35.588Z,5.40
2019-05-12T10:36:21.261Z,5.63
2019-05-12T10:41:07.341Z,7.07
2019-05-12T10:45:53.778Z,7.70
2019-05-12T10:50:40.085Z,6.13
2019-05-12T10:55:25.862Z,8.70
2019-05-12T11:00:19.793Z,10.17
2019-05-12T11:05:02.609Z,8.37
2019-05-12T11:09:48.496Z,9.87
2019-05-12T11:14:34.620Z,10.27
2019-05-12T11:19:20.713Z,10.30
2019-05-12T11:24:06.648Z,9.10
2019-05-12T11:28:53.199Z,7.17
2019-05-12T11:33:39.604Z,6.73
2019-05-12T11:38:25.584Z,8.77
2019-05-12T11:43:14.053Z,4.63
2019-05-12T11:48:05.935Z,4.80
2019-05-12T11:52:50.996Z,5.87
2019-05-12T11:57:35.794Z,5.67
2019-05-12T12:02:28.306Z,7.53
2019-05-12T12:07:09.731Z,5.00
2019-05-12T12:12:02.487Z,7.80
2019-05-12T12:16:49.977Z,7.33
2019-05-12T12:21:34.230Z,5.17
2019-05-12T12:26:30.353Z,7.77
2019-05-12T12:31:15.799Z,5.83
2019-05-12T12:36:01.582Z,7.20
2019-05-12T12:40:47.520Z,8.00
2019-05-12T12:45:43.435Z,6.07
2019-05-12T12:50:30.654Z,5.00
2019-05-12T12:55:17.067Z,5.70
2019-05-12T13:00:03.833Z,7.07
2019-05-12T13:04:50.565Z,6.17
2019-05-12T13:09:36.766Z,4.93
2019-05-12T13:14:23.445Z,4.07
2019-05-12T13:19:13.151Z,3.63
2019-05-12T13:23:57.653Z,5.83
2019-05-12T13:28:47.466Z,3.33
2019-05-12T13:33:30.945Z,3.13
2019-05-12T13:38:16.657Z,3.60
2019-05-12T13:43:03.874Z,2.03
2019-05-12T13:47:50.013Z,1.50
2019-05-12T13:52:35.961Z,3.70
2019-05-12T13:57:23.601Z,0.87
2019-05-12T14:02:13.991Z,0.80
2019-05-12T14:06:57.693Z,1.70
2019-05-12T14:11:43.831Z,1.30
2019-05-12T14:16:29.927Z,1.77
2019-05-12T14:21:16.113Z,3.63
2019-05-12T14:26:02.235Z,2.23
2019-05-12T14:30:51.623Z,2.67
2019-05-12T14:35:40.579Z,4.13
2019-05-12T14:40:29.976Z,3.70
2019-05-12T14:45:14.063Z,3.07
2019-05-12T14:50:00.677Z,1.80
2019-05-12T14:54:46.619Z,1.93
2019-05-12T14:59:39.221Z,2.27
2019-05-12T15:04:27.844Z,1.50
2019-05-12T15:09:11.419Z,1.93
2019-05-12T15:13:56.446Z,1.27
2019-05-12T15:18:46.598Z,1.73
2019-05-12T15:23:37.080Z,2.87
2019-05-12T15:28:17.820Z,2.27
2019-05-12T15:33:04.485Z,2.37
2019-05-12T15:37:52.906Z,2.83
2019-05-12T15:42:38.216Z,3.77
2019-05-12T15:47:29.575Z,2.13
2019-05-12T15:52:14.051Z,2.27
2019-05-12T15:56:59.467Z,2.80
2019-05-12T16:01:45.618Z,4.10
2019-05-12T16:06:31.515Z,4.60
2019-05-12T16:11:17.601Z,4.13
2019-05-12T16:16:06.578Z,4.30
2019-05-12T16:20:53.453Z,4.13
2019-05-12T16:25:38.957Z,4.30
2019-05-12T16:30:27.081Z,3.90
2019-05-12T16:35:14.514Z,5.53
2019-05-12T16:40:01.327Z,7.30
2019-05-12T16:44:47.157Z,4.07
2019-05-12T16:49:34.785Z,4.60
2019-05-12T16:54:21.215Z,5.47
2019-05-12T16:59:15.614Z,6.30
2019-05-12T17:03:54.889Z,6.27
2019-05-12T17:08:40.761Z,7.43
2019-05-12T17:13:26.643Z,11.43
2019-05-12T17:18:16.031Z,18.30
2019-05-12T17:23:03.444Z,15.87
2019-05-12T17:27:49.225Z,9.07
2019-05-12T17:32:35.187Z,10.07
2019-05-12T17:37:23.746Z,6.93
2019-05-12T17:42:14.813Z,9.43
2019-05-12T17:46:58.966Z,8.33
2019-05-12T17:51:44.938Z,8.17
2019-05-12T17:56:34.074Z,6.73
2019-05-12T18:01:22.994Z,7.03
2019-05-12T18:06:06.138Z,7.27
2019-05-12T18:10:54.274Z,6.77
2019-05-12T18:15:39.931Z,6.17
2019-05-12T18:20:25.871Z,7.27
2019-05-12T18:25:14.351Z,6.70
2019-05-12T18:29:59.642Z,9.93
2019-05-12T18:34:45.742Z,10.27
2019-05-12T18:39:31.632Z,11.10
2019-05-12T18:44:28.862Z,13.27
2019-05-12T18:49:12.337Z,14.90
2019-05-12T18:53:53.979Z,15.90
2019-05-12T18:58:41.357Z,11.50
2019-05-12T19:03:27.511Z,11.13
2019-05-12T19:08:14.083Z,11.27
2019-05-12T19:13:02.035Z,10.57
2019-05-12T19:17:47.940Z,8.57
2019-05-12T19:22:34.212Z,12.97
2019-05-12T19:27:20.976Z,9.33
2019-05-12T19:32:06.896Z,9.67
2019-05-12T19:36:53.056Z,10.80
2019-05-12T19:41:39.023Z,11.57
2019-05-12T19:46:25.085Z,9.40
2019-05-12T19:51:21.832Z,9.50
2019-05-12T19:55:58.431Z,11.37
2019-05-12T20:00:44.645Z,10.30
2019-05-12T20:05:30.711Z,11.70
2019-05-12T20:10:17.025Z,8.63
2019-05-12T20:15:04.048Z,9.03
2019-05-12T20:19:50.121Z,9.00
2019-05-12T20:24:35.935Z,9.50
2019-05-12T20:29:26.532Z,8.57
2019-05-12T20:34:11.100Z,11.30
2019-05-12T20:38:57.406Z,6.73
2019-05-12T20:43:44.302Z,8.70
2019-05-12T20:48:31.308Z,10.00
2019-05-12T20:53:24.721Z,11.67
2019-05-12T20:58:05.136Z,7.77
2019-05-12T21:02:53.938Z,9.10
2019-05-12T21:07:41.401Z,9.70
2019-05-12T21:12:27.288Z,7.13
2019-05-12T21:17:15.815Z,9.63
2019-05-12T21:22:00.659Z,9.00
2019-05-12T21:26:46.496Z,11.53
2019-05-12T21:31:33.741Z,7.67
2019-05-12T21:36:24.492Z,7.10
2019-05-12T21:41:07.847Z,9.33
2019-05-12T21:45:54.503Z,9.93
2019-05-12T21:50:40.317Z,6.47
2019-05-12T21:55:26.708Z,6.97
2019-05-12T22:00:26.271Z,12.00
2019-05-12T22:05:14.036Z,6.57
2019-05-12T22:09:59.731Z,8.00
2019-05-12T22:14:46.287Z,6.00
2019-05-12T22:19:35.124Z,7.23
2019-05-12T22:24:27.556Z,9.10
2019-05-12T22:29:07.298Z,10.17
2019-05-12T22:33:56.274Z,11.50
2019-05-12T22:38:40.403Z,9.80
2019-05-12T22:43:26.150Z,11.77
2019-05-12T22:48:11.955Z,14.20
2019-05-12T22:52:57.770Z,12.30
2019-05-12T22:57:43.626Z,8.77
2019-05-12T23:02:30.197Z,10.40
2019-05-12T23:07:19.152Z,9.47
2019-05-12T23:12:04.187Z,12.30
2019-05-12T23:16:50.293Z,9.57
2019-05-12T23:21:35.984Z,9.40
2019-05-12T23:26:24.431Z,9.57
2019-05-12T23:31:09.643Z,11.27
2019-05-12T23:35:55.406Z,11.63
2019-05-12T23:40:43.242Z,11.47
2019-05-12T23:45:28.380Z,10.50
2019-05-12T23:50:14.430Z,8.10
2019-05-12T23:55:00.176Z,10.70
2019-05-12T23:59:45.970Z,13.97
